Time;durP1;ratioP1;P1;durP2;ratioP2;P2;SDS_P1;SDS_P2;PMS_P1;PMS_P2;Temp;Humidity;BMP_temperature;BMP_pressure;BME280_temperature;BME280_humidity;BME280_pressure;Samples;Min_cycle;Max_cycle;Signal;HPM_P1;HPM_P2
2021/10/30 00:01:46;;;;;;;11.25;4.60;;;;;;;10.17;70.11;100024.47;5052783;28;20044;-78
2021/10/30 00:04:13;;;;;;;11.90;5.05;;;;;;;10.24;69.88;100033.22;5080700;28;20044;-78
2021/10/30 00:06:39;;;;;;;;;;;;;;;10.27;69.62;100034.59;5047644;28;20044;-80
2021/10/30 00:09:07;;;;;;;13.48;4.85;;;;;;;10.21;69.53;100037.31;5051791;28;19928;-80
2021/10/30 00:11:33;;;;;;;10.80;4.82;;;;;;;10.18;69.71;100040.56;5056804;28;20060;-80
2021/10/30 00:13:59;;;;;;;11.27;4.93;;;;;;;10.15;69.33;100024.72;5068160;28;20049;-80
2021/10/30 00:16:25;;;;;;;11.40;4.68;;;;;;;10.22;69.12;100032.66;5064768;28;20053;-80
2021/10/30 00:18:51;;;;;;;10.63;4.68;;;;;;;10.24;69.48;100041.41;5056732;28;20044;-80
2021/10/30 00:21:19;;;;;;;14.07;5.07;;;;;;;10.26;68.91;100028.31;5054229;28;20063;-81
2021/10/30 00:23:45;;;;;;;13.90;5.43;;;;;;;10.22;69.15;100038.13;5064501;28;20079;-78
2021/10/30 00:26:11;;;;;;;13.50;5.10;;;;;;;10.15;69.19;100032.91;5054142;28;20040;-78
2021/10/30 00:28:37;;;;;;;11.25;4.65;;;;;;;10.19;69.20;100025.00;5060298;28;20053;-78
2021/10/30 00:31:04;;;;;;;11.57;5.18;;;;;;;10.11;69.09;100020.88;5063242;28;20041;-78
2021/10/30 00:33:30;;;;;;;10.33;4.90;;;;;;;10.14;68.87;100044.09;5060684;28;20056;-78
2021/10/30 00:35:56;;;;;;;10.82;4.68;;;;;;;10.19;68.90;100019.53;5065589;28;20310;-78
2021/10/30 00:38:23;;;;;;;10.13;4.95;;;;;;;10.20;68.84;100037.59;5060691;28;20139;-78
2021/10/30 00:40:52;;;;;;;10.65;5.05;;;;;;;10.20;68.56;100032.13;5065562;28;20135;-78
2021/10/30 00:43:19;;;;;;;13.10;5.05;;;;;;;10.26;68.73;100033.78;5060147;28;20544;-78
2021/10/30 00:45:45;;;;;;;11.80;4.70;;;;;;;10.28;68.51;100034.31;5058739;28;20064;-77
2021/10/30 00:48:15;;;;;;;12.07;4.23;;;;;;;10.28;68.43;100031.59;5060251;28;20408;-78
2021/10/30 00:50:42;;;;;;;11.38;5.28;;;;;;;10.25;68.47;100026.66;5065586;28;20515;-78
2021/10/30 00:53:12;;;;;;;11.25;5.00;;;;;;;10.32;68.26;100040.09;5052202;28;20040;-78
2021/10/30 00:55:42;;;;;;;12.18;4.88;;;;;;;10.36;67.96;100042.03;5055329;28;20172;-78
2021/10/30 00:58:11;;;;;;;10.23;4.75;;;;;;;10.39;68.23;100035.22;5064788;28;20071;-78
2021/10/30 01:00:37;;;;;;;14.02;5.30;;;;;;;10.35;68.10;100037.66;5062999;28;20083;-78
2021/10/30 01:03:05;;;;;;;11.18;5.20;;;;;;;10.34;67.96;100036.00;5070032;28;20045;-77
2021/10/30 01:05:32;;;;;;;11.98;5.40;;;;;;;10.39;67.97;100040.69;5058795;28;20052;-80
2021/10/30 01:07:58;;;;;;;11.73;5.28;;;;;;;10.29;68.20;100037.91;5059850;28;20106;-78
2021/10/30 01:10:27;;;;;;;10.90;4.70;;;;;;;10.31;68.22;100032.97;5064425;28;20427;-79
2021/10/30 01:12:54;;;;;;;13.27;4.80;;;;;;;10.26;68.36;100041.97;5046612;28;20040;-80
2021/10/30 01:15:21;;;;;;;;;;;;;;;10.27;68.34;100029.94;5068435;28;20037;-79
2021/10/30 01:17:47;;;;;;;11.63;4.43;;;;;;;10.28;68.16;100037.06;5054206;28;19931;-79
2021/10/30 01:20:23;;;;;;;12.40;5.60;;;;;;;10.27;68.17;100032.69;5097967;28;20044;-79
2021/10/30 01:22:57;;;;;;;10.57;4.82;;;;;;;10.34;67.85;100038.75;5064067;28;20427;-78
2021/10/30 01:25:23;;;;;;;11.93;4.93;;;;;;;10.36;67.96;100041.19;5065042;28;20497;-78
2021/10/30 01:27:50;;;;;;;11.65;4.47;;;;;;;10.38;67.86;100032.72;5077099;28;20036;-82
2021/10/30 01:30:21;;;;;;;12.30;5.32;;;;;;;10.42;67.87;100033.88;5065305;28;20049;-79
2021/10/30 01:32:55;;;;;;;9.80;4.57;;;;;;;10.42;67.83;100037.44;5061363;28;20052;-79
2021/10/30 01:35:31;;;;;;;18.35;4.97;;;;;;;10.39;67.57;100042.56;5062155;28;20075;-78
2021/10/30 01:37:58;;;;;;;13.85;5.15;;;;;;;10.38;67.82;100044.50;5038245;28;20040;-78
2021/10/30 01:40:24;;;;;;;11.70;5.15;;;;;;;10.39;67.62;100042.56;5061224;28;20040;-79
2021/10/30 01:42:55;;;;;;;12.70;4.78;;;;;;;10.47;67.51;100040.19;5063101;28;20047;-78
2021/10/30 01:45:21;;;;;;;11.40;4.68;;;;;;;10.49;67.61;100031.72;5075015;28;20118;-79
2021/10/30 01:47:51;;;;;;;11.57;4.82;;;;;;;10.42;67.46;100045.63;5042557;28;20473;-79
2021/10/30 01:50:17;;;;;;;14.80;4.80;;;;;;;10.46;67.62;100049.47;5043943;28;20601;-79
2021/10/30 01:52:45;;;;;;;12.88;4.78;;;;;;;10.40;67.48;100030.56;5088231;28;20063;-79
2021/10/30 01:55:13;;;;;;;16.25;4.88;;;;;;;10.51;67.48;100043.19;5057091;28;20047;-78
2021/10/30 01:57:39;;;;;;;12.68;4.97;;;;;;;10.52;67.46;100050.31;5036971;28;20072;-79
2021/10/30 02:00:08;;;;;;;12.48;4.97;;;;;;;10.54;67.37;100058.25;5051462;28;20040;-81
2021/10/30 02:02:39;;;;;;;12.55;4.82;;;;;;;10.49;67.35;100048.13;5053157;28;21422;-80
2021/10/30 02:05:13;;;;;;;13.15;4.82;;;;;;;10.52;66.89;100049.47;5061189;28;20068;-80
2021/10/30 02:07:40;;;;;;;11.00;4.88;;;;;;;10.54;67.18;100053.59;5089599;28;20049;-78
2021/10/30 02:10:10;;;;;;;14.70;4.60;;;;;;;10.53;67.29;100054.69;5060678;28;20048;-80
2021/10/30 02:12:36;;;;;;;11.90;5.53;;;;;;;10.53;67.38;100065.63;5061145;28;20107;-80
2021/10/30 02:15:06;;;;;;;11.65;4.90;;;;;;;10.50;67.11;100055.22;5066385;28;20044;-79
2021/10/30 02:17:32;;;;;;;12.45;5.07;;;;;;;10.48;67.50;100063.69;5063198;28;20080;-78
2021/10/30 02:20:03;;;;;;;11.57;4.65;;;;;;;10.51;67.38;100048.66;5060781;28;20055;-79
2021/10/30 02:22:29;;;;;;;12.00;5.43;;;;;;;10.52;67.25;100063.16;5067284;28;20036;-78
2021/10/30 02:24:55;;;;;;;10.05;4.57;;;;;;;10.49;67.38;100045.38;5057930;28;20049;-79
2021/10/30 02:27:23;;;;;;;12.45;4.82;;;;;;;10.56;66.99;100056.06;5062756;28;20048;-79
2021/10/30 02:29:50;;;;;;;12.05;5.22;;;;;;;10.62;67.05;100055.81;5059563;28;20398;-78
2021/10/30 02:32:16;;;;;;;12.85;4.97;;;;;;;10.35;66.84;100014.94;5059751;28;20515;-80
2021/10/30 02:34:42;;;;;;;9.68;4.10;;;;;;;10.60;66.89;100040.75;5055345;28;20056;-79
2021/10/30 02:37:13;;;;;;;12.77;4.83;;;;;;;10.60;67.02;100063.44;5038428;28;20044;-82
2021/10/30 02:39:39;;;;;;;11.75;5.32;;;;;;;10.53;67.16;100046.50;5062087;28;20299;-82
2021/10/30 02:42:11;;;;;;;12.18;5.03;;;;;;;10.58;66.99;100064.81;5058643;28;20076;-81
2021/10/30 02:44:39;;;;;;;10.95;5.18;;;;;;;10.59;67.22;100058.25;5039049;28;20495;-79
2021/10/30 02:47:10;;;;;;;17.50;5.05;;;;;;;10.60;67.00;100049.78;5031902;28;20049;-80
2021/10/30 02:49:38;;;;;;;20.35;5.50;;;;;;;10.63;67.01;100067.56;5049874;28;20052;-81
2021/10/30 02:52:05;;;;;;;11.70;5.63;;;;;;;10.68;66.84;100064.03;5050421;28;20060;-79
2021/10/30 02:54:34;;;;;;;17.30;6.63;;;;;;;10.74;66.52;100074.72;5077132;28;20055;-81
2021/10/30 02:57:00;;;;;;;11.25;5.57;;;;;;;10.72;66.60;100076.06;5052453;28;20589;-80
2021/10/30 02:59:29;;;;;;;11.95;5.53;;;;;;;10.71;66.80;100079.91;5062062;28;20047;-81
2021/10/30 03:01:57;;;;;;;13.45;5.75;;;;;;;10.73;66.57;100078.53;5064144;28;20546;-81
2021/10/30 03:04:23;;;;;;;14.73;6.68;;;;;;;10.72;66.72;100078.81;5049830;28;20052;-81
2021/10/30 03:06:49;;;;;;;14.45;7.45;;;;;;;10.71;66.55;100083.47;5046737;28;20044;-80
2021/10/30 03:09:15;;;;;;;17.33;7.30;;;;;;;10.74;66.54;100076.63;5060210;28;20131;-79
2021/10/30 03:11:41;;;;;;;17.63;7.55;;;;;;;10.73;66.47;100074.97;5059368;28;20386;-79
2021/10/30 03:14:07;;;;;;;13.88;6.88;;;;;;;10.75;66.61;100092.78;5045720;28;20040;-79
2021/10/30 03:16:34;;;;;;;15.05;7.07;;;;;;;10.75;66.29;100084.56;5059808;28;20413;-79
2021/10/30 03:19:01;;;;;;;13.02;6.50;;;;;;;10.76;66.53;100094.41;5061126;28;20578;-79
2021/10/30 03:21:28;;;;;;;11.77;5.68;;;;;;;10.80;66.07;100089.22;5062652;28;20041;-78
2021/10/30 03:23:57;;;;;;;12.55;5.50;;;;;;;10.78;66.22;100091.41;5046336;28;20044;-79
2021/10/30 03:26:23;;;;;;;14.77;5.32;;;;;;;10.80;66.18;100086.50;5071729;28;20118;-80
2021/10/30 03:28:50;;;;;;;15.25;5.40;;;;;;;10.86;65.87;100101.00;5059520;28;20086;-80
2021/10/30 03:31:16;;;;;;;13.23;5.55;;;;;;;10.78;66.20;100089.50;5069923;28;20044;-79
2021/10/30 03:33:43;;;;;;;15.83;5.57;;;;;;;10.73;66.33;100103.16;5055467;28;20041;-76
2021/10/30 03:36:13;;;;;;;13.45;5.20;;;;;;;10.71;66.15;100099.88;5054218;28;20045;-76
2021/10/30 03:38:40;;;;;;;12.55;5.65;;;;;;;10.71;66.26;100099.88;5028005;28;20072;-75
2021/10/30 03:41:08;;;;;;;12.20;5.72;;;;;;;10.73;66.24;100100.44;5053838;28;20056;-76
2021/10/30 03:43:35;;;;;;;11.52;5.53;;;;;;;10.74;66.03;100099.34;5035085;28;20421;-77
2021/10/30 03:46:01;;;;;;;13.70;5.28;;;;;;;10.79;66.21;100101.28;5056187;28;20045;-75
2021/10/30 03:48:30;;;;;;;12.68;5.03;;;;;;;10.80;65.89;100099.34;5094459;28;20050;-77
2021/10/30 03:50:56;;;;;;;12.27;5.13;;;;;;;10.77;65.99;100096.06;5057614;28;20509;-76
2021/10/30 03:53:23;;;;;;;12.48;5.30;;;;;;;10.80;66.00;100107.53;5061232;28;20072;-77
2021/10/30 03:55:50;;;;;;;;;;;;;;;10.81;65.94;100107.28;5058382;28;20045;-76
2021/10/30 03:58:16;;;;;;;14.90;5.32;;;;;;;10.75;65.93;100098.25;5058845;28;20265;-77
2021/10/30 04:00:43;;;;;;;11.90;5.22;;;;;;;10.70;66.31;100105.59;5064011;28;20051;-75
2021/10/30 04:03:11;;;;;;;11.68;4.50;;;;;;;10.64;66.29;100102.03;5061506;28;20033;-77
2021/10/30 04:05:38;;;;;;;16.90;5.47;;;;;;;10.62;66.57;100098.72;5055020;28;20209;-77
2021/10/30 04:08:05;;;;;;;12.82;4.70;;;;;;;10.71;66.03;100097.13;5063325;28;20056;-76
2021/10/30 04:10:32;;;;;;;10.63;4.93;;;;;;;10.75;65.95;100105.59;5076832;28;20146;-77
2021/10/30 04:12:58;;;;;;;13.63;5.30;;;;;;;10.70;65.89;100102.88;5061379;28;20045;-76
2021/10/30 04:15:24;;;;;;;13.82;5.07;;;;;;;10.72;65.86;100103.41;5049735;28;20046;-77
2021/10/30 04:17:53;;;;;;;11.90;4.95;;;;;;;10.67;65.94;100106.13;5048850;28;20195;-77
2021/10/30 04:20:22;;;;;;;11.27;5.40;;;;;;;10.66;66.10;100104.50;5058933;28;20144;-77
2021/10/30 04:22:51;;;;;;;14.77;5.18;;;;;;;10.62;66.05;100102.31;5061450;28;20456;-77
2021/10/30 04:25:18;;;;;;;12.13;5.30;;;;;;;10.36;66.40;100080.28;5061514;28;20519;-78
2021/10/30 04:27:49;;;;;;;11.15;4.82;;;;;;;10.35;66.79;100091.47;5067919;28;20048;-77
2021/10/30 04:30:15;;;;;;;10.60;4.40;;;;;;;10.20;67.09;100084.84;5057476;28;20061;-77
2021/10/30 04:32:43;;;;;;;11.70;4.78;;;;;;;10.21;67.52;100094.69;5062711;28;20048;-77
2021/10/30 04:35:10;;;;;;;16.40;5.07;;;;;;;10.12;67.60;100107.22;5062209;28;20095;-77
2021/10/30 04:37:38;;;;;;;12.02;4.78;;;;;;;10.14;67.64;100094.13;5054868;28;20091;-78
2021/10/30 04:40:06;;;;;;;11.80;5.22;;;;;;;10.15;67.51;100095.75;5063098;28;20048;-78
2021/10/30 04:42:35;;;;;;;10.23;4.78;;;;;;;10.07;67.90;100082.63;5060426;28;20045;-77
2021/10/30 04:45:09;;;;;;;12.88;5.63;;;;;;;9.94;67.92;100083.88;5095374;28;20064;-77
2021/10/30 04:47:35;;;;;;;14.32;4.95;;;;;;;10.10;67.91;100086.72;5063179;28;20044;-77
2021/10/30 04:50:01;;;;;;;11.50;5.18;;;;;;;10.15;67.72;100084.03;5064132;28;20751;-77
2021/10/30 04:52:32;;;;;;;10.80;4.60;;;;;;;10.21;67.40;100082.94;5063952;28;20049;-79
2021/10/30 04:55:01;;;;;;;10.75;4.53;;;;;;;10.15;67.72;100095.75;5059882;28;20146;-79
2021/10/30 04:57:28;;;;;;;14.60;4.93;;;;;;;10.13;67.59;100084.28;5059070;28;20146;-77
2021/10/30 04:59:54;;;;;;;13.07;5.30;;;;;;;10.17;67.68;100077.19;5071653;28;20088;-78
2021/10/30 05:02:24;;;;;;;10.00;4.72;;;;;;;10.17;67.62;100090.03;5061742;28;20041;-76
2021/10/30 05:04:50;;;;;;;9.65;4.55;;;;;;;10.13;67.76;100086.16;5051931;28;20398;-76
2021/10/30 05:07:17;;;;;;;11.77;4.70;;;;;;;10.11;67.83;100088.34;5061297;28;20044;-78
2021/10/30 05:09:43;;;;;;;12.98;5.18;;;;;;;10.17;67.67;100090.03;5056333;28;20057;-76
2021/10/30 05:12:10;;;;;;;14.13;5.00;;;;;;;10.14;67.79;100091.38;5043189;28;20078;-77
2021/10/30 05:14:36;;;;;;;12.32;4.90;;;;;;;10.12;67.68;100079.91;5063006;28;20456;-79
2021/10/30 05:17:03;;;;;;;10.88;4.85;;;;;;;10.13;67.95;100097.09;5073798;28;20040;-78
2021/10/30 05:19:32;;;;;;;10.90;4.80;;;;;;;10.20;67.80;100094.97;5047774;28;20140;-77
2021/10/30 05:21:58;;;;;;;13.80;5.35;;;;;;;10.19;67.73;100085.13;5060670;28;20045;-77
2021/10/30 05:24:24;;;;;;;12.88;4.90;;;;;;;10.25;67.71;100088.72;5058921;28;20055;-77
2021/10/30 05:26:51;;;;;;;12.23;5.03;;;;;;;10.27;67.53;100098.28;5060349;28;20040;-77
2021/10/30 05:29:17;;;;;;;12.68;4.97;;;;;;;10.24;67.61;100095.28;5053181;28;20136;-80
2021/10/30 05:31:46;;;;;;;11.77;5.05;;;;;;;10.25;67.39;100091.44;5054154;28;20079;-79
2021/10/30 05:34:12;;;;;;;14.82;5.25;;;;;;;10.21;67.39;100081.03;5052592;28;20048;-80
2021/10/30 05:36:59;;;;;;;15.07;5.15;;;;;;;10.30;67.47;100092.31;5061921;28;20133;-80
2021/10/30 05:39:36;;;;;;;15.60;4.95;;;;;;;10.32;67.53;100094.75;5056040;28;20135;-78
2021/10/30 05:42:04;;;;;;;10.13;4.97;;;;;;;10.17;67.83;100084.56;5087031;28;20395;-79
2021/10/30 05:44:30;;;;;;;12.90;5.10;;;;;;;10.34;67.45;100089.84;5061405;28;20045;-79
2021/10/30 05:46:56;;;;;;;13.32;5.65;;;;;;;10.39;67.23;100089.88;5061100;28;20416;-77
2021/10/30 05:49:26;;;;;;;10.10;5.15;;;;;;;10.38;67.67;100090.13;5050175;28;20075;-78
2021/10/30 05:51:52;;;;;;;13.68;5.47;;;;;;;10.39;67.47;100078.09;5061437;28;20041;-77
2021/10/30 05:54:20;;;;;;;15.65;5.68;;;;;;;10.46;67.48;100097.88;5040819;28;20041;-78
2021/10/30 05:56:45;;;;;;;;;;;;;;;10.55;67.31;100104.44;5061980;28;20143;-77
2021/10/30 05:59:12;;;;;;;10.65;4.60;;;;;;;10.52;67.55;100104.16;5059299;28;20026;-77
2021/10/30 06:01:39;;;;;;;13.20;5.47;;;;;;;10.52;67.37;100087.75;5061612;28;20403;-77
2021/10/30 06:04:08;;;;;;;11.73;5.22;;;;;;;10.64;67.44;100091.91;5055617;28;20090;-77
2021/10/30 06:06:34;;;;;;;12.43;4.90;;;;;;;10.71;67.20;100094.41;5066483;28;20071;-77
2021/10/30 06:09:00;;;;;;;14.13;5.57;;;;;;;10.75;67.28;100091.94;5095812;28;20048;-77
2021/10/30 06:11:28;;;;;;;13.45;5.40;;;;;;;10.72;67.24;100098.78;5056290;28;20110;-77
2021/10/30 06:13:54;;;;;;;;;;;;;;;10.80;67.40;100093.88;5043738;28;20528;-77
2021/10/30 06:16:20;;;;;;;14.18;5.53;;;;;;;10.73;67.12;100085.91;5061469;28;19925;-76
2021/10/30 06:18:50;;;;;;;13.30;5.55;;;;;;;10.82;67.23;100113.56;5064888;28;20056;-77
2021/10/30 06:21:17;;;;;;;15.13;5.50;;;;;;;10.80;66.97;100089.22;5058578;28;20043;-76
2021/10/30 06:23:48;;;;;;;20.83;5.60;;;;;;;10.95;67.08;100102.13;5059194;28;20045;-77
2021/10/30 06:26:15;;;;;;;13.68;5.78;;;;;;;10.96;67.04;100101.03;5055067;28;20048;-76
2021/10/30 06:28:46;;;;;;;15.45;5.55;;;;;;;11.03;67.01;100103.50;5054367;28;20144;-77
2021/10/30 06:31:12;;;;;;;16.75;6.38;;;;;;;11.08;66.88;100108.97;5059125;28;20068;-77
2021/10/30 06:33:38;;;;;;;14.57;5.32;;;;;;;11.06;66.90;100094.75;5059101;28;20040;-77
2021/10/30 06:36:04;;;;;;;17.08;5.75;;;;;;;11.18;66.75;100083.56;5059059;28;20060;-77
2021/10/30 06:38:30;;;;;;;17.63;5.68;;;;;;;11.18;66.66;100091.78;5065814;28;20055;-77
2021/10/30 06:40:59;;;;;;;22.83;6.45;;;;;;;11.18;66.94;100083.56;5060494;28;20136;-76
2021/10/30 06:43:25;;;;;;;15.70;5.45;;;;;;;11.28;66.87;100094.50;5062168;28;20040;-76
2021/10/30 06:45:53;;;;;;;16.30;5.75;;;;;;;11.27;66.82;100103.81;5063129;28;20041;-76
2021/10/30 06:48:19;;;;;;;;;;;;;;;11.34;66.56;100098.91;5063652;28;20075;-78
2021/10/30 06:50:45;;;;;;;16.70;5.38;;;;;;;11.33;66.60;100090.97;5085622;28;19924;-75
2021/10/30 06:53:11;;;;;;;20.10;5.75;;;;;;;11.33;66.47;100100.00;5057804;28;20044;-76
2021/10/30 06:55:37;;;;;;;14.65;5.88;;;;;;;11.49;66.35;100109.03;5057426;28;20551;-76
2021/10/30 06:58:03;;;;;;;17.05;7.03;;;;;;;11.59;66.31;100113.69;5061932;28;20311;-76
2021/10/30 07:00:29;;;;;;;18.88;6.07;;;;;;;11.61;65.95;100100.53;5072337;28;20045;-76
2021/10/30 07:02:59;;;;;;;15.27;5.97;;;;;;;11.70;66.12;100110.94;5037163;28;20071;-77
2021/10/30 07:05:25;;;;;;;18.30;6.05;;;;;;;11.65;65.87;100100.00;5064400;28;20504;-80
2021/10/30 07:07:52;;;;;;;14.95;5.50;;;;;;;11.76;65.71;100096.16;5057841;28;20076;-78
2021/10/30 07:10:18;;;;;;;18.25;7.50;;;;;;;11.78;66.01;100111.22;5056536;28;20049;-77
2021/10/30 07:12:44;;;;;;;15.75;6.70;;;;;;;11.86;65.72;100117.22;5065329;28;20139;-77
2021/10/30 07:15:13;;;;;;;18.38;6.78;;;;;;;11.95;65.66;100112.03;5049128;28;20489;-77
2021/10/30 07:17:40;;;;;;;17.17;6.82;;;;;;;12.02;65.70;100116.16;5068611;28;20135;-77
2021/10/30 07:20:09;;;;;;;15.23;6.82;;;;;;;12.11;65.11;100110.09;5093108;28;20114;-76
2021/10/30 07:22:42;;;;;;;15.38;6.90;;;;;;;12.38;64.62;100125.41;5047193;28;20044;-76
2021/10/30 07:25:09;;;;;;;19.08;7.85;;;;;;;12.43;64.33;100117.97;5064017;28;20536;-77
2021/10/30 07:27:35;;;;;;;14.32;6.43;;;;;;;12.44;64.55;100118.78;5090422;28;20044;-76
2021/10/30 07:30:01;;;;;;;18.15;6.68;;;;;;;12.43;64.68;100125.38;5063677;28;20457;-75
2021/10/30 07:32:27;;;;;;;14.63;6.28;;;;;;;12.55;64.30;100119.56;5059366;28;20338;-76
2021/10/30 07:34:53;;;;;;;15.27;7.13;;;;;;;12.54;64.40;100110.53;5044327;28;20075;-75
2021/10/30 07:37:21;;;;;;;17.77;7.68;;;;;;;12.54;64.22;100117.91;5092136;28;20531;-75
2021/10/30 07:39:47;;;;;;;16.98;7.53;;;;;;;12.61;63.95;100124.75;5062991;28;20513;-74
2021/10/30 07:42:13;;;;;;;17.20;7.30;;;;;;;12.50;64.43;100125.06;5072648;28;20048;-76
2021/10/30 07:44:39;;;;;;;17.40;7.65;;;;;;;12.49;64.24;100124.28;5055513;28;20496;-76
2021/10/30 07:47:06;;;;;;;14.73;7.95;;;;;;;12.42;64.24;100145.66;5070390;28;20044;-75
2021/10/30 07:49:32;;;;;;;21.95;7.65;;;;;;;12.27;64.40;100114.44;5067186;28;20048;-76
2021/10/30 07:51:58;;;;;;;17.73;8.85;;;;;;;12.27;64.37;100147.34;5054838;28;20060;-76
2021/10/30 07:54:27;;;;;;;;;;;;;;;12.25;64.58;100137.75;5062542;28;20052;-76
2021/10/30 07:56:53;;;;;;;;;;;;;;;12.36;64.52;100133.09;5060290;28;20384;-79
2021/10/30 07:59:20;;;;;;;16.85;7.93;;;;;;;12.32;64.47;100143.78;5062981;28;19925;-81
2021/10/30 08:01:46;;;;;;;16.90;7.95;;;;;;;12.38;64.33;100123.47;5071268;28;20512;-81
2021/10/30 08:04:12;;;;;;;18.08;8.45;;;;;;;12.50;64.10;100125.91;5094538;28;20067;-80
2021/10/30 08:06:38;;;;;;;15.38;8.13;;;;;;;12.62;64.08;100131.06;5062516;28;20049;-78
2021/10/30 08:09:05;;;;;;;20.83;7.97;;;;;;;12.66;63.77;100114.88;5053656;28;20484;-78
2021/10/30 08:11:32;;;;;;;18.80;7.47;;;;;;;12.88;63.35;100128.22;5080953;28;20110;-77
2021/10/30 08:13:58;;;;;;;15.90;7.78;;;;;;;13.00;62.97;100128.69;5071764;28;20447;-79
2021/10/30 08:16:25;;;;;;;18.02;8.90;;;;;;;13.14;62.38;100136.28;5058740;28;20047;-79
2021/10/30 08:18:51;;;;;;;18.45;8.07;;;;;;;13.17;62.04;100131.06;5057142;28;20121;-79
2021/10/30 08:21:19;;;;;;;20.13;8.40;;;;;;;13.29;62.30;100127.16;5063191;28;20493;-79
2021/10/30 08:24:24;;;;;;;;;;;;;;;;;;;;;
2021/10/30 08:27:37;;;;;;;20.50;7.47;;;;;;;13.40;61.83;100152.59;5093104;28;20065;-78
2021/10/30 08:43:18;;;;;;;17.05;8.40;;;;;;;12.74;62.36;100150.78;4922547;29;20098;-77
2021/10/30 08:52:58;;;;;;;16.55;7.28;;;;;;;13.25;61.24;100162.59;5089695;28;20086;-77
2021/10/30 08:56:07;;;;;;;17.73;7.68;;;;;;;13.14;60.10;100060.25;5088795;28;20066;-77
2021/10/30 08:59:03;;;;;;;21.40;7.72;;;;;;;13.75;59.38;100118.56;5042932;28;20452;-77
2021/10/30 09:06:17;;;;;;;;;;;;;;;;;;;;;
2021/10/30 09:12:24;;;;;;;21.25;7.82;;;;;;;14.95;56.03;100156.63;5003068;28;20046;-76
2021/10/30 09:15:02;;;;;;;18.30;8.10;;;;;;;14.89;55.47;100183.41;5007609;28;20061;-77
2021/10/30 09:17:46;;;;;;;17.90;8.90;;;;;;;14.55;55.39;100074.28;4989079;28;20050;-77
2021/10/30 09:20:29;;;;;;;19.42;8.25;;;;;;;15.90;53.78;100141.16;4998440;28;20418;-77
2021/10/30 09:22:55;;;;;;;14.70;7.40;;;;;;;16.34;53.43;100135.41;5077630;28;20044;-77
2021/10/30 09:25:22;;;;;;;14.27;7.47;;;;;;;16.38;52.71;100145.53;5090056;28;20593;-78
2021/10/30 09:27:51;;;;;;;13.30;7.30;;;;;;;16.79;51.40;100135.63;5120597;27;20044;-78
2021/10/30 09:30:22;;;;;;;16.83;7.65;;;;;;;16.92;51.54;100146.97;5097942;28;20044;-77
2021/10/30 09:32:56;;;;;;;14.65;7.32;;;;;;;17.12;50.07;100143.75;5113248;27;20400;-71
2021/10/30 09:35:24;;;;;;;19.13;6.93;;;;;;;17.03;51.02;100139.28;5097857;28;20055;-69
2021/10/30 09:37:51;;;;;;;13.02;6.55;;;;;;;16.59;51.18;100148.72;5094373;28;20047;-69
2021/10/30 09:40:20;;;;;;;16.25;7.07;;;;;;;16.60;51.00;100144.00;5112188;28;20047;-68
2021/10/30 09:42:47;;;;;;;16.70;7.47;;;;;;;16.73;50.36;100153.44;5105528;28;20044;-68
2021/10/30 09:45:14;;;;;;;12.50;6.93;;;;;;;17.06;49.63;100150.53;5101452;27;20093;-68
2021/10/30 09:47:44;;;;;;;17.35;6.47;;;;;;;17.66;48.73;100140.31;5109506;27;20410;-69
2021/10/30 09:50:25;;;;;;;14.82;6.63;;;;;;;17.96;48.00;100132.38;5095974;28;20044;-68
2021/10/30 09:52:54;;;;;;;15.80;6.07;;;;;;;18.49;47.16;100134.56;5104817;27;20036;-68
2021/10/30 09:55:25;;;;;;;11.80;5.95;;;;;;;18.79;46.21;100107.94;5097410;28;20047;-67
2021/10/30 09:58:02;;;;;;;16.33;6.97;;;;;;;19.04;45.86;100135.22;5091586;28;20143;-67
2021/10/30 10:00:30;;;;;;;13.18;6.15;;;;;;;19.21;45.66;100131.69;5103914;28;20054;-66
2021/10/30 10:03:00;;;;;;;14.43;6.40;;;;;;;19.18;45.18;100132.31;5106759;27;20163;-67
2021/10/30 10:05:28;;;;;;;12.30;6.05;;;;;;;18.79;45.80;100127.34;5091116;28;20063;-67
2021/10/30 10:07:54;;;;;;;;;;;;;;;18.82;44.90;100151.63;5096826;28;20101;-67
2021/10/30 10:10:22;;;;;;;14.52;6.50;;;;;;;18.66;45.27;100142.97;5105049;28;19927;-67
2021/10/30 10:12:49;;;;;;;15.77;6.68;;;;;;;18.50;45.19;100153.63;5100336;28;20055;-67
2021/10/30 10:15:16;;;;;;;16.90;6.60;;;;;;;18.50;45.20;100125.97;5106485;27;20050;-66
2021/10/30 10:17:43;;;;;;;14.20;6.88;;;;;;;18.95;44.31;100151.81;5109505;28;20101;-68
2021/10/30 10:20:12;;;;;;;11.93;5.93;;;;;;;19.20;43.72;100124.47;5092470;28;20044;-68
2021/10/30 10:22:40;;;;;;;14.75;7.40;;;;;;;20.03;42.84;100141.22;5104029;28;20130;-68
2021/10/30 10:25:29;;;;;;;13.30;6.20;;;;;;;20.74;40.87;100137.00;5100021;28;20047;-67
2021/10/30 10:28:17;;;;;;;14.48;6.70;;;;;;;20.08;40.61;100149.38;5109286;28;20048;-67
2021/10/30 10:30:55;;;;;;;12.57;6.38;;;;;;;20.43;40.22;100162.31;5092267;28;20051;-67
2021/10/30 10:33:21;;;;;;;13.85;5.72;;;;;;;20.00;40.93;100141.91;5099669;28;20130;-68
2021/10/30 10:36:17;;;;;;;12.70;6.33;;;;;;;19.72;41.38;100143.03;5101142;28;20461;-67
2021/10/30 10:39:20;;;;;;;14.27;5.93;;;;;;;19.84;40.93;100134.06;5093416;28;20051;-67
2021/10/30 10:41:52;;;;;;;10.48;5.82;;;;;;;19.97;40.94;100135.84;5017860;28;20095;-67
2021/10/30 10:44:59;;;;;;;13.40;6.05;;;;;;;20.12;40.53;100142.00;5009726;28;20553;-67
2021/10/30 10:47:54;;;;;;;14.30;6.40;;;;;;;19.62;41.62;100143.41;5087411;27;20075;-68
2021/10/30 10:50:25;;;;;;;13.10;6.10;;;;;;;20.19;40.92;100120.13;5102912;28;20507;-67
2021/10/30 10:53:17;;;;;;;13.52;5.97;;;;;;;19.84;41.30;100117.44;5107545;28;20035;-67
2021/10/30 10:56:08;;;;;;;13.68;6.00;;;;;;;19.77;41.56;100123.47;5096565;28;20093;-69
2021/10/30 10:59:01;;;;;;;14.05;6.25;;;;;;;19.19;42.41;100145.00;5102145;28;20051;-71
2021/10/30 11:01:28;;;;;;;15.77;6.82;;;;;;;19.12;42.62;100131.63;5122930;27;20051;-71
2021/10/30 11:04:12;;;;;;;16.48;6.95;;;;;;;19.09;42.88;100129.53;5110253;28;20035;-72
2021/10/30 11:06:42;;;;;;;12.77;6.68;;;;;;;19.00;42.50;100168.31;5112427;28;20089;-71
2021/10/30 11:09:16;;;;;;;12.82;6.72;;;;;;;18.38;44.00;100137.66;5111766;28;20506;-71
2021/10/30 11:11:42;;;;;;;12.30;6.40;;;;;;;18.06;44.82;100158.97;5112256;28;20054;-72
2021/10/30 11:14:10;;;;;;;16.95;7.07;;;;;;;17.87;45.32;100109.38;5109799;28;20047;-71
2021/10/30 11:16:39;;;;;;;13.55;6.47;;;;;;;17.67;45.48;100136.41;5112279;28;20055;-72
2021/10/30 11:19:23;;;;;;;16.13;7.00;;;;;;;18.04;45.03;100103.16;5109290;28;20058;-70
2021/10/30 11:21:54;;;;;;;18.42;7.22;;;;;;;17.92;44.61;100128.59;5093062;28;20404;-72
2021/10/30 11:24:25;;;;;;;12.95;7.28;;;;;;;18.30;43.97;100126.53;5094106;28;20496;-71
2021/10/30 11:27:01;;;;;;;17.70;7.60;;;;;;;18.43;44.02;100131.16;5103531;28;20051;-73
2021/10/30 11:29:27;;;;;;;13.70;7.10;;;;;;;18.98;42.98;100132.59;5096048;28;20055;-71
2021/10/30 11:31:55;;;;;;;14.65;7.03;;;;;;;19.53;42.19;100104.59;5091495;28;20138;-71
2021/10/30 11:34:21;;;;;;;16.38;7.40;;;;;;;18.80;42.64;100122.59;5098915;28;20028;-70
2021/10/30 11:36:47;;;;;;;12.85;6.97;;;;;;;18.81;42.80;100124.22;5102537;28;20066;-72
2021/10/30 11:39:14;;;;;;;15.95;7.03;;;;;;;18.12;44.02;100160.47;5101949;28;20043;-72
2021/10/30 11:41:44;;;;;;;14.32;7.63;;;;;;;17.71;45.17;100131.06;5108758;28;20581;-71
2021/10/30 11:44:11;;;;;;;15.88;7.63;;;;;;;18.03;44.95;100109.00;5104260;28;20509;-71
2021/10/30 11:46:39;;;;;;;19.58;7.90;;;;;;;18.09;44.57;100118.78;5100089;28;20047;-72
2021/10/30 11:49:05;;;;;;;15.80;7.45;;;;;;;17.98;44.49;100155.00;5103633;28;20047;-72
2021/10/30 11:51:41;;;;;;;14.13;7.63;;;;;;;18.00;44.55;100105.69;5107863;28;20050;-72
2021/10/30 11:54:11;;;;;;;16.52;8.23;;;;;;;18.17;44.14;100098.66;5115788;28;20065;-71
2021/10/30 11:56:39;;;;;;;14.50;6.95;;;;;;;18.32;43.85;100100.16;5120568;28;20340;-71
2021/10/30 11:59:08;;;;;;;16.42;7.70;;;;;;;18.25;44.39;100111.69;5110770;28;20101;-78
2021/10/30 12:01:36;;;;;;;19.45;7.53;;;;;;;18.44;43.91;100124.47;5092822;28;20166;-78